Airfield :
LOGIN :

Register | Disclaimer

   EN    FR    IT 

 










Legend :    VFR   Marginal VFR   IFR   Intensive IFR   Very Intensive IFR
Visi :
Ceiling :
>= 8 km
>= 3000ft
5 to 8 km
1000 to 3000 ft
1500m to 5 km
500 to 1000 ft
800 to 1500m
200 to 500 ft
< 800m
< 200 ft
Symbols :   Thunderstorms  Fog  Heavy snow  Heavy precipitations  Wind > 20 kt
SIGMETs :     Misc.  Thunderstorms  Icing  Turbulence  Mountain Waves  Volcanic Ashes






- Airport Elevation : -15 ft
- IATA code : RTM


EHRD - Rotterdam Zestienhoven

CURRENT METAR :
  • 070125Z AUTO 27015KT 240V300 9999 -RA FEW016 SCT020 BKN023 10/08 Q1006 NOSIG

EXPIRED METARs :
  • 070055Z AUTO 27014KT 240V300 9999 FEW022 OVC029 10/07 Q1005 NOSIG
  • 070025Z AUTO 27014KT 240V310 9999 FEW016 OVC032 10/08 Q1005 NOSIG
  • 062355Z AUTO 27014KT 230V300 9999 FEW020 SCT023 BKN029 10/08 Q1005 REDZ BECMG 9999 NSW
  • 062325Z AUTO 26016KT 230V300 9999 DZRA SCT016 BKN020 BKN023 10/08 Q1004 BECMG 9999 NSW
  • 062255Z AUTO 27016KT 220V310 9999 FEW017 BKN020 OVC024 10/08 Q1004 BECMG 9999 NSW

TAF TAF EHRD
Valid from the 07 at 00:00 until the 08 at 06:00 UTC


062315Z 0700/0806 27013KT 9999 SCT018
PROB30
TEMPO 0700/0715 7000 -SHRA FEW015TCU BKN018
BECMG 0715/0718 23008KT
BECMG 0721/0724 20013KT
BECMG 0803/0806 21020G30KT 7000 -RA BKN014



MET'MAP, your aeronautical weather chart ! - Copyright ORBIFLY December 2007 - Disclaimer

ORBIFLY MET'MAP TEAM :

Programming & Development : Alexandra Zaïnal
Concept & original design : Baudouin d'Aumeries
Assistance for programming : Marc-Olivier Méhu
Technical & hardware support : Manuel Goepfert

Contact : metmap@orbifly.com




SOURCES & CREDITS :

   NOAA